Cisco, Texas
Current Conditions -  °F | °C
As of 5:15 PM on Saturday 25 Oct 2014 (Local Time) from KBKD Reporting Station
Haze Haze  
Wind Chill: 91°   Ceiling: Unl
Heat Index: 91°   Visibility: 5mi
Dew Point: 47°   Wind: 10mph
Humidity: 22%   Direction: 190°S
Pressure: 30.06"   Gusts: NA
Location:  32.39°N, 98.98°W
Report Text: KBKD 252215Z AUTO 19009KT 5SM HZ CLR 33/09 A3006 RMK AO2 T03250085
Loading
Personal Weather Stations






























Interactive Weather Map
Tropical Storm Tracking
New forecast layout! Learn more

10-Day Weather Forecast

Advertisements
Track Severe Weather on mobile